sensor_id;sensor_type;location;lat;lon;timestamp;P1;durP1;ratioP1;P2;durP2;ratioP2
76894;SDS011;65855;42.030;13.078;2024-02-26T00:01:36;4.30;;;1.95;;
76894;SDS011;65855;42.030;13.078;2024-02-26T00:04:02;5.25;;;1.95;;
76894;SDS011;65855;42.030;13.078;2024-02-26T00:06:28;2.30;;;1.83;;
76894;SDS011;65855;42.030;13.078;2024-02-26T00:08:54;6.15;;;2.40;;
76894;SDS011;65855;42.030;13.078;2024-02-26T00:11:20;2.50;;;1.65;;
76894;SDS011;65855;42.030;13.078;2024-02-26T00:13:45;4.00;;;2.35;;
76894;SDS011;65855;42.030;13.078;2024-02-26T00:16:11;3.45;;;2.05;;
76894;SDS011;65855;42.030;13.078;2024-02-26T00:18:36;2.55;;;1.60;;
76894;SDS011;65855;42.030;13.078;2024-02-26T00:21:02;4.50;;;2.08;;
76894;SDS011;65855;42.030;13.078;2024-02-26T00:23:28;4.40;;;2.38;;
76894;SDS011;65855;42.030;13.078;2024-02-26T00:25:53;5.47;;;3.50;;
76894;SDS011;65855;42.030;13.078;2024-02-26T00:28:20;7.05;;;3.33;;
76894;SDS011;65855;42.030;13.078;2024-02-26T00:30:46;4.93;;;2.60;;
76894;SDS011;65855;42.030;13.078;2024-02-26T00:33:12;6.57;;;2.05;;
76894;SDS011;65855;42.030;13.078;2024-02-26T00:35:38;5.18;;;1.92;;
76894;SDS011;65855;42.030;13.078;2024-02-26T00:38:04;17.35;;;6.32;;
76894;SDS011;65855;42.030;13.078;2024-02-26T00:40:29;6.57;;;3.08;;
76894;SDS011;65855;42.030;13.078;2024-02-26T00:42:55;4.22;;;2.42;;
76894;SDS011;65855;42.030;13.078;2024-02-26T00:45:20;7.70;;;3.65;;
76894;SDS011;65855;42.030;13.078;2024-02-26T00:47:47;3.65;;;1.70;;
76894;SDS011;65855;42.030;13.078;2024-02-26T00:50:14;5.78;;;3.20;;
76894;SDS011;65855;42.030;13.078;2024-02-26T00:52:40;5.28;;;2.42;;
76894;SDS011;65855;42.030;13.078;2024-02-26T00:55:05;5.95;;;3.33;;
76894;SDS011;65855;42.030;13.078;2024-02-26T00:57:31;4.63;;;2.08;;
76894;SDS011;65855;42.030;13.078;2024-02-26T00:59:57;6.03;;;2.88;;
76894;SDS011;65855;42.030;13.078;2024-02-26T01:02:22;10.75;;;5.40;;
76894;SDS011;65855;42.030;13.078;2024-02-26T01:04:48;7.90;;;3.50;;
76894;SDS011;65855;42.030;13.078;2024-02-26T01:07:13;4.97;;;2.92;;
76894;SDS011;65855;42.030;13.078;2024-02-26T01:09:39;3.72;;;1.70;;
76894;SDS011;65855;42.030;13.078;2024-02-26T01:12:04;5.57;;;2.83;;
76894;SDS011;65855;42.030;13.078;2024-02-26T01:14:30;6.57;;;3.15;;
76894;SDS011;65855;42.030;13.078;2024-02-26T01:16:56;4.45;;;2.30;;
76894;SDS011;65855;42.030;13.078;2024-02-26T01:19:21;4.05;;;2.75;;
76894;SDS011;65855;42.030;13.078;2024-02-26T01:21:47;4.80;;;2.90;;
76894;SDS011;65855;42.030;13.078;2024-02-26T01:24:12;6.53;;;4.68;;
76894;SDS011;65855;42.030;13.078;2024-02-26T01:26:38;9.90;;;5.50;;
76894;SDS011;65855;42.030;13.078;2024-02-26T01:29:04;9.52;;;4.95;;
76894;SDS011;65855;42.030;13.078;2024-02-26T01:31:29;10.73;;;4.68;;
76894;SDS011;65855;42.030;13.078;2024-02-26T01:33:55;8.00;;;3.53;;
76894;SDS011;65855;42.030;13.078;2024-02-26T01:36:20;4.43;;;2.38;;
76894;SDS011;65855;42.030;13.078;2024-02-26T01:38:46;4.35;;;2.53;;
76894;SDS011;65855;42.030;13.078;2024-02-26T01:41:13;5.93;;;3.03;;
76894;SDS011;65855;42.030;13.078;2024-02-26T01:43:39;5.75;;;2.63;;
76894;SDS011;65855;42.030;13.078;2024-02-26T01:46:04;5.47;;;2.97;;
76894;SDS011;65855;42.030;13.078;2024-02-26T01:48:30;7.30;;;3.33;;
76894;SDS011;65855;42.030;13.078;2024-02-26T01:50:55;3.72;;;2.92;;
76894;SDS011;65855;42.030;13.078;2024-02-26T01:53:21;3.42;;;1.90;;
76894;SDS011;65855;42.030;13.078;2024-02-26T01:55:47;3.55;;;1.50;;
76894;SDS011;65855;42.030;13.078;2024-02-26T01:58:12;5.90;;;2.70;;
76894;SDS011;65855;42.030;13.078;2024-02-26T02:00:39;7.07;;;3.65;;
76894;SDS011;65855;42.030;13.078;2024-02-26T02:03:04;3.15;;;2.35;;
76894;SDS011;65855;42.030;13.078;2024-02-26T02:05:30;4.95;;;3.25;;
76894;SDS011;65855;42.030;13.078;2024-02-26T02:07:56;3.75;;;2.95;;
76894;SDS011;65855;42.030;13.078;2024-02-26T02:10:21;8.32;;;2.33;;
76894;SDS011;65855;42.030;13.078;2024-02-26T02:12:50;6.65;;;3.25;;
76894;SDS011;65855;42.030;13.078;2024-02-26T02:15:16;4.55;;;2.67;;
76894;SDS011;65855;42.030;13.078;2024-02-26T02:17:42;3.28;;;2.00;;
76894;SDS011;65855;42.030;13.078;2024-02-26T02:20:08;2.92;;;2.15;;
76894;SDS011;65855;42.030;13.078;2024-02-26T02:22:41;2.13;;;1.25;;
76894;SDS011;65855;42.030;13.078;2024-02-26T02:25:06;3.20;;;2.33;;
76894;SDS011;65855;42.030;13.078;2024-02-26T02:27:32;3.88;;;1.73;;
76894;SDS011;65855;42.030;13.078;2024-02-26T02:29:57;3.97;;;2.47;;
76894;SDS011;65855;42.030;13.078;2024-02-26T02:32:23;3.45;;;2.28;;
76894;SDS011;65855;42.030;13.078;2024-02-26T02:34:50;5.50;;;2.60;;
76894;SDS011;65855;42.030;13.078;2024-02-26T02:37:16;5.05;;;3.85;;
76894;SDS011;65855;42.030;13.078;2024-02-26T02:39:41;2.15;;;1.55;;
76894;SDS011;65855;42.030;13.078;2024-02-26T02:42:08;2.47;;;2.13;;
76894;SDS011;65855;42.030;13.078;2024-02-26T02:44:34;3.65;;;2.13;;
76894;SDS011;65855;42.030;13.078;2024-02-26T02:46:59;2.88;;;1.83;;
76894;SDS011;65855;42.030;13.078;2024-02-26T02:49:25;3.05;;;1.80;;
76894;SDS011;65855;42.030;13.078;2024-02-26T02:51:50;2.35;;;1.80;;
76894;SDS011;65855;42.030;13.078;2024-02-26T02:54:15;4.05;;;2.63;;
76894;SDS011;65855;42.030;13.078;2024-02-26T02:56:41;6.13;;;2.90;;
76894;SDS011;65855;42.030;13.078;2024-02-26T02:59:06;3.42;;;2.42;;
76894;SDS011;65855;42.030;13.078;2024-02-26T03:01:32;4.63;;;2.90;;
76894;SDS011;65855;42.030;13.078;2024-02-26T03:03:57;4.60;;;2.40;;
76894;SDS011;65855;42.030;13.078;2024-02-26T03:06:23;5.85;;;2.55;;
76894;SDS011;65855;42.030;13.078;2024-02-26T03:08:51;4.78;;;2.72;;
76894;SDS011;65855;42.030;13.078;2024-02-26T03:11:17;4.22;;;2.58;;
76894;SDS011;65855;42.030;13.078;2024-02-26T03:13:42;7.25;;;3.30;;
76894;SDS011;65855;42.030;13.078;2024-02-26T03:16:08;3.97;;;2.70;;
76894;SDS011;65855;42.030;13.078;2024-02-26T03:18:34;4.35;;;3.15;;
76894;SDS011;65855;42.030;13.078;2024-02-26T03:20:59;4.25;;;2.47;;
76894;SDS011;65855;42.030;13.078;2024-02-26T03:23:25;5.03;;;2.70;;
76894;SDS011;65855;42.030;13.078;2024-02-26T03:25:50;4.90;;;2.53;;
76894;SDS011;65855;42.030;13.078;2024-02-26T03:28:16;5.00;;;3.25;;
76894;SDS011;65855;42.030;13.078;2024-02-26T03:30:41;4.78;;;2.97;;
76894;SDS011;65855;42.030;13.078;2024-02-26T03:33:06;5.07;;;2.92;;
76894;SDS011;65855;42.030;13.078;2024-02-26T03:35:32;4.25;;;2.75;;
76894;SDS011;65855;42.030;13.078;2024-02-26T03:37:57;4.00;;;2.22;;
76894;SDS011;65855;42.030;13.078;2024-02-26T03:40:23;4.03;;;2.42;;
76894;SDS011;65855;42.030;13.078;2024-02-26T03:42:49;4.55;;;2.17;;
76894;SDS011;65855;42.030;13.078;2024-02-26T03:45:15;9.32;;;3.20;;
76894;SDS011;65855;42.030;13.078;2024-02-26T03:47:40;5.60;;;2.58;;
76894;SDS011;65855;42.030;13.078;2024-02-26T03:50:06;4.22;;;2.05;;
76894;SDS011;65855;42.030;13.078;2024-02-26T03:52:32;4.80;;;2.88;;
76894;SDS011;65855;42.030;13.078;2024-02-26T03:54:59;6.43;;;3.47;;
76894;SDS011;65855;42.030;13.078;2024-02-26T03:57:24;6.00;;;3.08;;
76894;SDS011;65855;42.030;13.078;2024-02-26T03:59:50;6.50;;;4.95;;
76894;SDS011;65855;42.030;13.078;2024-02-26T04:02:15;4.50;;;2.88;;
76894;SDS011;65855;42.030;13.078;2024-02-26T04:04:41;4.55;;;3.20;;
76894;SDS011;65855;42.030;13.078;2024-02-26T04:07:07;5.82;;;2.22;;
76894;SDS011;65855;42.030;13.078;2024-02-26T04:09:32;4.30;;;2.67;;
76894;SDS011;65855;42.030;13.078;2024-02-26T04:11:58;3.88;;;2.20;;
76894;SDS011;65855;42.030;13.078;2024-02-26T04:14:24;5.43;;;2.83;;
76894;SDS011;65855;42.030;13.078;2024-02-26T04:16:49;3.55;;;2.20;;
76894;SDS011;65855;42.030;13.078;2024-02-26T04:19:17;5.57;;;3.92;;
76894;SDS011;65855;42.030;13.078;2024-02-26T04:21:43;4.72;;;2.25;;
76894;SDS011;65855;42.030;13.078;2024-02-26T04:24:08;2.38;;;1.77;;
76894;SDS011;65855;42.030;13.078;2024-02-26T04:26:34;9.13;;;3.30;;
76894;SDS011;65855;42.030;13.078;2024-02-26T04:28:59;3.60;;;2.70;;
76894;SDS011;65855;42.030;13.078;2024-02-26T04:31:25;5.13;;;2.63;;
76894;SDS011;65855;42.030;13.078;2024-02-26T04:33:51;6.35;;;3.10;;
76894;SDS011;65855;42.030;13.078;2024-02-26T04:36:17;4.63;;;2.78;;
76894;SDS011;65855;42.030;13.078;2024-02-26T04:38:43;6.38;;;3.08;;
76894;SDS011;65855;42.030;13.078;2024-02-26T04:41:09;4.55;;;3.08;;
76894;SDS011;65855;42.030;13.078;2024-02-26T04:43:35;3.75;;;1.90;;
76894;SDS011;65855;42.030;13.078;2024-02-26T04:46:09;8.10;;;4.88;;
76894;SDS011;65855;42.030;13.078;2024-02-26T04:48:35;3.47;;;2.38;;
76894;SDS011;65855;42.030;13.078;2024-02-26T04:51:02;3.92;;;2.08;;
76894;SDS011;65855;42.030;13.078;2024-02-26T04:53:28;3.03;;;2.03;;
76894;SDS011;65855;42.030;13.078;2024-02-26T04:55:53;2.97;;;2.00;;
76894;SDS011;65855;42.030;13.078;2024-02-26T04:58:19;6.05;;;2.63;;
76894;SDS011;65855;42.030;13.078;2024-02-26T05:00:44;2.42;;;1.83;;
76894;SDS011;65855;42.030;13.078;2024-02-26T05:03:10;2.28;;;1.83;;
76894;SDS011;65855;42.030;13.078;2024-02-26T05:05:40;3.72;;;2.45;;
76894;SDS011;65855;42.030;13.078;2024-02-26T05:08:06;5.70;;;2.17;;
76894;SDS011;65855;42.030;13.078;2024-02-26T05:10:32;3.67;;;3.13;;
76894;SDS011;65855;42.030;13.078;2024-02-26T05:12:58;13.13;;;3.78;;
76894;SDS011;65855;42.030;13.078;2024-02-26T05:15:23;3.22;;;1.75;;
76894;SDS011;65855;42.030;13.078;2024-02-26T05:17:49;3.85;;;2.45;;
76894;SDS011;65855;42.030;13.078;2024-02-26T05:20:14;4.78;;;2.58;;
76894;SDS011;65855;42.030;13.078;2024-02-26T05:22:40;4.30;;;3.25;;
76894;SDS011;65855;42.030;13.078;2024-02-26T05:25:05;4.60;;;3.05;;
76894;SDS011;65855;42.030;13.078;2024-02-26T05:27:31;10.15;;;3.95;;
76894;SDS011;65855;42.030;13.078;2024-02-26T05:29:57;5.00;;;2.45;;
76894;SDS011;65855;42.030;13.078;2024-02-26T05:32:22;4.53;;;3.15;;
76894;SDS011;65855;42.030;13.078;2024-02-26T05:34:47;3.88;;;2.10;;
76894;SDS011;65855;42.030;13.078;2024-02-26T05:37:13;4.18;;;2.78;;
76894;SDS011;65855;42.030;13.078;2024-02-26T05:39:38;4.90;;;2.58;;
76894;SDS011;65855;42.030;13.078;2024-02-26T05:42:04;4.40;;;2.50;;
76894;SDS011;65855;42.030;13.078;2024-02-26T05:44:30;3.03;;;1.98;;
76894;SDS011;65855;42.030;13.078;2024-02-26T05:46:55;2.63;;;1.83;;
76894;SDS011;65855;42.030;13.078;2024-02-26T05:49:21;4.18;;;1.85;;
76894;SDS011;65855;42.030;13.078;2024-02-26T05:51:47;3.20;;;2.15;;
76894;SDS011;65855;42.030;13.078;2024-02-26T05:54:13;3.60;;;2.45;;
76894;SDS011;65855;42.030;13.078;2024-02-26T05:56:39;3.10;;;1.98;;
76894;SDS011;65855;42.030;13.078;2024-02-26T05:59:04;3.60;;;2.78;;
76894;SDS011;65855;42.030;13.078;2024-02-26T06:01:30;3.10;;;1.55;;
76894;SDS011;65855;42.030;13.078;2024-02-26T06:03:56;3.38;;;2.20;;
76894;SDS011;65855;42.030;13.078;2024-02-26T06:06:22;2.63;;;1.92;;
76894;SDS011;65855;42.030;13.078;2024-02-26T06:08:48;3.22;;;1.73;;
76894;SDS011;65855;42.030;13.078;2024-02-26T06:11:14;2.58;;;1.83;;
76894;SDS011;65855;42.030;13.078;2024-02-26T06:13:39;2.53;;;1.73;;
76894;SDS011;65855;42.030;13.078;2024-02-26T06:16:05;2.65;;;2.15;;
76894;SDS011;65855;42.030;13.078;2024-02-26T06:18:31;2.90;;;2.17;;
76894;SDS011;65855;42.030;13.078;2024-02-26T06:20:56;3.50;;;2.55;;
76894;SDS011;65855;42.030;13.078;2024-02-26T06:23:22;2.40;;;1.90;;
76894;SDS011;65855;42.030;13.078;2024-02-26T06:25:48;5.53;;;5.13;;
76894;SDS011;65855;42.030;13.078;2024-02-26T06:28:13;4.68;;;2.72;;
76894;SDS011;65855;42.030;13.078;2024-02-26T06:30:39;3.78;;;3.13;;
76894;SDS011;65855;42.030;13.078;2024-02-26T06:33:04;2.30;;;1.48;;
76894;SDS011;65855;42.030;13.078;2024-02-26T06:35:30;4.47;;;1.75;;
76894;SDS011;65855;42.030;13.078;2024-02-26T06:37:55;4.55;;;2.28;;
76894;SDS011;65855;42.030;13.078;2024-02-26T06:40:21;3.70;;;2.42;;
76894;SDS011;65855;42.030;13.078;2024-02-26T06:42:46;4.68;;;2.30;;
76894;SDS011;65855;42.030;13.078;2024-02-26T06:45:12;3.90;;;2.15;;
76894;SDS011;65855;42.030;13.078;2024-02-26T06:47:38;5.55;;;3.67;;
76894;SDS011;65855;42.030;13.078;2024-02-26T06:50:03;3.05;;;2.20;;
76894;SDS011;65855;42.030;13.078;2024-02-26T06:52:29;4.47;;;2.00;;
76894;SDS011;65855;42.030;13.078;2024-02-26T06:54:54;3.53;;;2.67;;
76894;SDS011;65855;42.030;13.078;2024-02-26T06:57:20;6.55;;;2.47;;
76894;SDS011;65855;42.030;13.078;2024-02-26T06:59:46;3.47;;;2.03;;
76894;SDS011;65855;42.030;13.078;2024-02-26T07:02:12;5.47;;;1.67;;
76894;SDS011;65855;42.030;13.078;2024-02-26T07:04:38;5.63;;;1.73;;
76894;SDS011;65855;42.030;13.078;2024-02-26T07:07:04;3.72;;;1.63;;
76894;SDS011;65855;42.030;13.078;2024-02-26T07:09:29;4.80;;;2.05;;
76894;SDS011;65855;42.030;13.078;2024-02-26T07:11:55;6.30;;;2.13;;
76894;SDS011;65855;42.030;13.078;2024-02-26T07:14:20;5.03;;;2.33;;
76894;SDS011;65855;42.030;13.078;2024-02-26T07:16:46;4.60;;;1.92;;
76894;SDS011;65855;42.030;13.078;2024-02-26T07:19:11;5.35;;;2.08;;
76894;SDS011;65855;42.030;13.078;2024-02-26T07:21:37;9.50;;;3.38;;
76894;SDS011;65855;42.030;13.078;2024-02-26T07:24:04;8.93;;;3.42;;
76894;SDS011;65855;42.030;13.078;2024-02-26T07:26:30;7.43;;;4.47;;
76894;SDS011;65855;42.030;13.078;2024-02-26T07:28:56;8.32;;;3.75;;
76894;SDS011;65855;42.030;13.078;2024-02-26T07:31:21;10.45;;;3.40;;
76894;SDS011;65855;42.030;13.078;2024-02-26T07:33:46;8.98;;;3.17;;
76894;SDS011;65855;42.030;13.078;2024-02-26T07:36:12;7.78;;;3.75;;
76894;SDS011;65855;42.030;13.078;2024-02-26T07:38:37;6.68;;;3.55;;
76894;SDS011;65855;42.030;13.078;2024-02-26T07:41:04;7.72;;;3.88;;
76894;SDS011;65855;42.030;13.078;2024-02-26T07:43:30;8.35;;;4.00;;
76894;SDS011;65855;42.030;13.078;2024-02-26T07:45:55;13.45;;;6.00;;
76894;SDS011;65855;42.030;13.078;2024-02-26T07:48:21;18.70;;;8.45;;
76894;SDS011;65855;42.030;13.078;2024-02-26T07:50:46;6.97;;;3.22;;
76894;SDS011;65855;42.030;13.078;2024-02-26T07:53:11;6.68;;;3.10;;
76894;SDS011;65855;42.030;13.078;2024-02-26T07:55:38;12.95;;;5.30;;
76894;SDS011;65855;42.030;13.078;2024-02-26T07:58:03;7.93;;;2.70;;
76894;SDS011;65855;42.030;13.078;2024-02-26T08:00:29;6.05;;;2.10;;
76894;SDS011;65855;42.030;13.078;2024-02-26T08:02:54;5.80;;;2.22;;
76894;SDS011;65855;42.030;13.078;2024-02-26T08:05:20;5.70;;;2.22;;
76894;SDS011;65855;42.030;13.078;2024-02-26T08:07:45;6.63;;;1.88;;
76894;SDS011;65855;42.030;13.078;2024-02-26T08:10:11;7.75;;;2.30;;
76894;SDS011;65855;42.030;13.078;2024-02-26T08:12:36;5.10;;;1.63;;
76894;SDS011;65855;42.030;13.078;2024-02-26T08:15:02;5.50;;;1.95;;
76894;SDS011;65855;42.030;13.078;2024-02-26T08:17:28;5.75;;;1.33;;
76894;SDS011;65855;42.030;13.078;2024-02-26T08:19:53;8.63;;;1.85;;
76894;SDS011;65855;42.030;13.078;2024-02-26T08:22:19;6.25;;;1.27;;
76894;SDS011;65855;42.030;13.078;2024-02-26T08:24:44;5.03;;;1.10;;
76894;SDS011;65855;42.030;13.078;2024-02-26T08:27:10;5.13;;;1.33;;
76894;SDS011;65855;42.030;13.078;2024-02-26T08:29:35;5.00;;;1.42;;
76894;SDS011;65855;42.030;13.078;2024-02-26T08:32:01;5.00;;;1.42;;
76894;SDS011;65855;42.030;13.078;2024-02-26T08:34:27;5.78;;;1.70;;
76894;SDS011;65855;42.030;13.078;2024-02-26T08:36:52;6.68;;;2.30;;
76894;SDS011;65855;42.030;13.078;2024-02-26T08:39:18;4.55;;;1.65;;
76894;SDS011;65855;42.030;13.078;2024-02-26T08:41:43;7.38;;;1.80;;
76894;SDS011;65855;42.030;13.078;2024-02-26T08:44:09;6.00;;;1.73;;
76894;SDS011;65855;42.030;13.078;2024-02-26T08:46:35;4.63;;;1.50;;
76894;SDS011;65855;42.030;13.078;2024-02-26T08:49:01;5.90;;;1.50;;
76894;SDS011;65855;42.030;13.078;2024-02-26T08:51:26;5.32;;;1.67;;
76894;SDS011;65855;42.030;13.078;2024-02-26T08:53:51;4.07;;;1.17;;
76894;SDS011;65855;42.030;13.078;2024-02-26T08:56:18;4.60;;;1.35;;
76894;SDS011;65855;42.030;13.078;2024-02-26T08:58:46;3.72;;;1.20;;
76894;SDS011;65855;42.030;13.078;2024-02-26T09:01:14;4.50;;;1.40;;
76894;SDS011;65855;42.030;13.078;2024-02-26T09:03:40;4.35;;;1.70;;
76894;SDS011;65855;42.030;13.078;2024-02-26T09:06:05;4.72;;;1.02;;
76894;SDS011;65855;42.030;13.078;2024-02-26T09:08:34;4.40;;;1.38;;
76894;SDS011;65855;42.030;13.078;2024-02-26T09:11:01;3.88;;;1.10;;
76894;SDS011;65855;42.030;13.078;2024-02-26T09:13:26;3.50;;;1.13;;
76894;SDS011;65855;42.030;13.078;2024-02-26T09:15:52;3.85;;;1.10;;
76894;SDS011;65855;42.030;13.078;2024-02-26T09:18:17;3.25;;;1.17;;
76894;SDS011;65855;42.030;13.078;2024-02-26T09:20:43;4.38;;;1.45;;
76894;SDS011;65855;42.030;13.078;2024-02-26T09:23:08;5.68;;;1.30;;
76894;SDS011;65855;42.030;13.078;2024-02-26T09:25:34;4.55;;;1.52;;
76894;SDS011;65855;42.030;13.078;2024-02-26T09:28:00;4.10;;;1.25;;
76894;SDS011;65855;42.030;13.078;2024-02-26T09:30:26;4.15;;;1.13;;
76894;SDS011;65855;42.030;13.078;2024-02-26T09:32:52;4.03;;;1.00;;
76894;SDS011;65855;42.030;13.078;2024-02-26T09:35:17;5.45;;;1.30;;
76894;SDS011;65855;42.030;13.078;2024-02-26T09:37:43;6.05;;;1.40;;
76894;SDS011;65855;42.030;13.078;2024-02-26T09:40:09;5.63;;;1.02;;
76894;SDS011;65855;42.030;13.078;2024-02-26T09:42:41;7.32;;;1.38;;
76894;SDS011;65855;42.030;13.078;2024-02-26T09:45:09;5.53;;;1.70;;
76894;SDS011;65855;42.030;13.078;2024-02-26T09:47:40;5.50;;;1.70;;
76894;SDS011;65855;42.030;13.078;2024-02-26T09:50:07;5.80;;;1.63;;
76894;SDS011;65855;42.030;13.078;2024-02-26T09:52:34;4.38;;;1.30;;
76894;SDS011;65855;42.030;13.078;2024-02-26T09:55:03;4.32;;;1.90;;
76894;SDS011;65855;42.030;13.078;2024-02-26T09:57:29;4.47;;;1.60;;
76894;SDS011;65855;42.030;13.078;2024-02-26T09:59:55;4.82;;;1.98;;
76894;SDS011;65855;42.030;13.078;2024-02-26T10:02:28;4.65;;;1.63;;
76894;SDS011;65855;42.030;13.078;2024-02-26T10:04:55;4.53;;;1.42;;
76894;SDS011;65855;42.030;13.078;2024-02-26T10:07:22;5.97;;;1.75;;
76894;SDS011;65855;42.030;13.078;2024-02-26T10:09:48;6.50;;;1.83;;
76894;SDS011;65855;42.030;13.078;2024-02-26T10:12:13;6.88;;;2.60;;
76894;SDS011;65855;42.030;13.078;2024-02-26T10:14:42;8.27;;;3.53;;
76894;SDS011;65855;42.030;13.078;2024-02-26T10:17:07;8.20;;;3.83;;
76894;SDS011;65855;42.030;13.078;2024-02-26T10:19:34;6.75;;;2.50;;
76894;SDS011;65855;42.030;13.078;2024-02-26T10:22:00;8.57;;;3.28;;
76894;SDS011;65855;42.030;13.078;2024-02-26T10:24:26;8.88;;;4.00;;
76894;SDS011;65855;42.030;13.078;2024-02-26T10:26:53;8.27;;;4.03;;
76894;SDS011;65855;42.030;13.078;2024-02-26T10:29:19;8.05;;;4.10;;
76894;SDS011;65855;42.030;13.078;2024-02-26T10:31:46;10.07;;;4.05;;
76894;SDS011;65855;42.030;13.078;2024-02-26T10:34:11;8.45;;;3.58;;
76894;SDS011;65855;42.030;13.078;2024-02-26T10:36:37;14.48;;;4.28;;
76894;SDS011;65855;42.030;13.078;2024-02-26T10:39:06;9.43;;;4.45;;
76894;SDS011;65855;42.030;13.078;2024-02-26T10:41:35;7.90;;;2.63;;
76894;SDS011;65855;42.030;13.078;2024-02-26T10:44:01;8.00;;;3.35;;
76894;SDS011;65855;42.030;13.078;2024-02-26T10:46:27;9.40;;;3.33;;
76894;SDS011;65855;42.030;13.078;2024-02-26T10:48:52;6.80;;;2.47;;
76894;SDS011;65855;42.030;13.078;2024-02-26T10:51:20;7.32;;;3.45;;
76894;SDS011;65855;42.030;13.078;2024-02-26T10:53:50;6.28;;;2.65;;
76894;SDS011;65855;42.030;13.078;2024-02-26T10:56:21;10.38;;;4.25;;
76894;SDS011;65855;42.030;13.078;2024-02-26T10:58:52;8.13;;;2.88;;
76894;SDS011;65855;42.030;13.078;2024-02-26T11:01:18;7.70;;;2.30;;
76894;SDS011;65855;42.030;13.078;2024-02-26T11:03:46;4.45;;;1.00;;
76894;SDS011;65855;42.030;13.078;2024-02-26T11:06:15;4.38;;;1.35;;
76894;SDS011;65855;42.030;13.078;2024-02-26T11:08:41;4.68;;;1.58;;
76894;SDS011;65855;42.030;13.078;2024-02-26T11:11:07;6.13;;;2.03;;
76894;SDS011;65855;42.030;13.078;2024-02-26T11:13:34;4.70;;;1.70;;
76894;SDS011;65855;42.030;13.078;2024-02-26T11:16:04;5.72;;;1.50;;
76894;SDS011;65855;42.030;13.078;2024-02-26T11:18:32;4.10;;;0.98;;
76894;SDS011;65855;42.030;13.078;2024-02-26T11:20:59;4.00;;;1.20;;
76894;SDS011;65855;42.030;13.078;2024-02-26T11:23:25;4.93;;;1.40;;
76894;SDS011;65855;42.030;13.078;2024-02-26T11:25:51;5.72;;;2.30;;
76894;SDS011;65855;42.030;13.078;2024-02-26T11:28:19;6.57;;;2.42;;
76894;SDS011;65855;42.030;13.078;2024-02-26T11:30:47;7.70;;;2.60;;
76894;SDS011;65855;42.030;13.078;2024-02-26T11:33:14;6.72;;;2.22;;
76894;SDS011;65855;42.030;13.078;2024-02-26T11:35:40;8.35;;;2.85;;
76894;SDS011;65855;42.030;13.078;2024-02-26T11:38:06;4.53;;;2.17;;
76894;SDS011;65855;42.030;13.078;2024-02-26T11:40:33;5.60;;;2.83;;
76894;SDS011;65855;42.030;13.078;2024-02-26T11:48:20;5.45;;;3.25;;
76894;SDS011;65855;42.030;13.078;2024-02-26T11:50:54;6.15;;;2.63;;
76894;SDS011;65855;42.030;13.078;2024-02-26T11:58:59;7.40;;;3.00;;
76894;SDS011;65855;42.030;13.078;2024-02-26T12:04:27;8.73;;;3.55;;
76894;SDS011;65855;42.030;13.078;2024-02-26T12:06:56;7.03;;;2.13;;
76894;SDS011;65855;42.030;13.078;2024-02-26T12:09:38;8.27;;;1.67;;
76894;SDS011;65855;42.030;13.078;2024-02-26T12:12:08;4.80;;;2.08;;
76894;SDS011;65855;42.030;13.078;2024-02-26T12:14:51;7.38;;;2.95;;
76894;SDS011;65855;42.030;13.078;2024-02-26T12:17:21;3.90;;;1.67;;
76894;SDS011;65855;42.030;13.078;2024-02-26T12:19:48;3.22;;;1.05;;
76894;SDS011;65855;42.030;13.078;2024-02-26T12:22:14;3.63;;;1.20;;
76894;SDS011;65855;42.030;13.078;2024-02-26T12:24:40;3.13;;;1.13;;
76894;SDS011;65855;42.030;13.078;2024-02-26T12:27:06;2.10;;;1.05;;
76894;SDS011;65855;42.030;13.078;2024-02-26T12:29:32;2.80;;;1.23;;
76894;SDS011;65855;42.030;13.078;2024-02-26T12:31:57;2.50;;;1.08;;
76894;SDS011;65855;42.030;13.078;2024-02-26T12:34:23;2.63;;;1.10;;
76894;SDS011;65855;42.030;13.078;2024-02-26T12:36:49;4.20;;;1.38;;
76894;SDS011;65855;42.030;13.078;2024-02-26T12:39:14;2.17;;;0.93;;
76894;SDS011;65855;42.030;13.078;2024-02-26T12:41:40;1.70;;;1.23;;
76894;SDS011;65855;42.030;13.078;2024-02-26T12:44:07;2.90;;;0.93;;
76894;SDS011;65855;42.030;13.078;2024-02-26T12:46:33;3.78;;;0.93;;
76894;SDS011;65855;42.030;13.078;2024-02-26T12:48:58;3.28;;;0.98;;
76894;SDS011;65855;42.030;13.078;2024-02-26T12:51:25;3.58;;;1.33;;
76894;SDS011;65855;42.030;13.078;2024-02-26T12:53:51;3.78;;;1.30;;
76894;SDS011;65855;42.030;13.078;2024-02-26T12:56:18;4.75;;;1.27;;
76894;SDS011;65855;42.030;13.078;2024-02-26T12:58:44;2.53;;;1.00;;
76894;SDS011;65855;42.030;13.078;2024-02-26T13:01:15;5.88;;;1.13;;
76894;SDS011;65855;42.030;13.078;2024-02-26T13:03:42;3.90;;;1.58;;
76894;SDS011;65855;42.030;13.078;2024-02-26T13:06:08;4.03;;;1.80;;
76894;SDS011;65855;42.030;13.078;2024-02-26T13:08:35;3.40;;;1.10;;
76894;SDS011;65855;42.030;13.078;2024-02-26T13:11:00;3.88;;;1.30;;
76894;SDS011;65855;42.030;13.078;2024-02-26T13:13:26;2.85;;;1.00;;
76894;SDS011;65855;42.030;13.078;2024-02-26T13:16:05;4.75;;;1.48;;
76894;SDS011;65855;42.030;13.078;2024-02-26T13:18:33;4.82;;;1.65;;
76894;SDS011;65855;42.030;13.078;2024-02-26T13:21:09;3.83;;;1.55;;
76894;SDS011;65855;42.030;13.078;2024-02-26T13:23:36;4.82;;;1.92;;
76894;SDS011;65855;42.030;13.078;2024-02-26T13:26:05;5.82;;;1.50;;
76894;SDS011;65855;42.030;13.078;2024-02-26T13:28:31;3.97;;;1.23;;
76894;SDS011;65855;42.030;13.078;2024-02-26T13:30:57;3.63;;;1.30;;
76894;SDS011;65855;42.030;13.078;2024-02-26T13:33:24;3.63;;;1.30;;
76894;SDS011;65855;42.030;13.078;2024-02-26T13:35:51;4.75;;;1.60;;
76894;SDS011;65855;42.030;13.078;2024-02-26T13:38:17;3.10;;;1.20;;
76894;SDS011;65855;42.030;13.078;2024-02-26T13:40:43;3.85;;;1.55;;
76894;SDS011;65855;42.030;13.078;2024-02-26T13:43:09;3.10;;;0.93;;
76894;SDS011;65855;42.030;13.078;2024-02-26T13:45:35;4.97;;;1.80;;
76894;SDS011;65855;42.030;13.078;2024-02-26T13:48:03;5.10;;;2.28;;
76894;SDS011;65855;42.030;13.078;2024-02-26T13:50:30;6.00;;;3.65;;
76894;SDS011;65855;42.030;13.078;2024-02-26T13:52:55;3.05;;;1.10;;
76894;SDS011;65855;42.030;13.078;2024-02-26T13:55:22;4.15;;;1.50;;
76894;SDS011;65855;42.030;13.078;2024-02-26T13:57:51;4.20;;;1.40;;
76894;SDS011;65855;42.030;13.078;2024-02-26T14:00:18;7.70;;;1.52;;
76894;SDS011;65855;42.030;13.078;2024-02-26T14:02:45;2.58;;;1.00;;
76894;SDS011;65855;42.030;13.078;2024-02-26T14:05:10;5.45;;;1.73;;
76894;SDS011;65855;42.030;13.078;2024-02-26T14:07:36;3.10;;;1.27;;
76894;SDS011;65855;42.030;13.078;2024-02-26T14:10:01;4.72;;;1.52;;
76894;SDS011;65855;42.030;13.078;2024-02-26T14:12:27;3.53;;;1.08;;
76894;SDS011;65855;42.030;13.078;2024-02-26T14:14:53;3.92;;;1.30;;
76894;SDS011;65855;42.030;13.078;2024-02-26T14:17:20;5.82;;;1.80;;
76894;SDS011;65855;42.030;13.078;2024-02-26T14:19:47;5.15;;;2.03;;
76894;SDS011;65855;42.030;13.078;2024-02-26T14:22:13;3.05;;;1.10;;
76894;SDS011;65855;42.030;13.078;2024-02-26T14:24:41;6.40;;;1.35;;
76894;SDS011;65855;42.030;13.078;2024-02-26T14:27:10;7.13;;;2.58;;
76894;SDS011;65855;42.030;13.078;2024-02-26T14:29:40;3.65;;;1.35;;
76894;SDS011;65855;42.030;13.078;2024-02-26T14:32:09;4.00;;;1.48;;
76894;SDS011;65855;42.030;13.078;2024-02-26T14:34:35;5.07;;;1.20;;
76894;SDS011;65855;42.030;13.078;2024-02-26T14:37:00;5.75;;;1.63;;
76894;SDS011;65855;42.030;13.078;2024-02-26T14:39:26;2.42;;;0.88;;
76894;SDS011;65855;42.030;13.078;2024-02-26T14:41:52;3.33;;;1.30;;